createdAt,value
2023-04-02T00:00:36.606Z,8.90
2023-04-02T00:03:08.708Z,8.90
2023-04-02T00:05:54.881Z,8.80
2023-04-02T00:08:41.161Z,8.80
2023-04-02T00:11:09.402Z,8.80
2023-04-02T00:13:46.910Z,8.80
2023-04-02T00:16:19.022Z,8.80
2023-04-02T00:18:53.252Z,8.80
2023-04-02T00:21:31.195Z,8.70
2023-04-02T00:24:02.982Z,8.70
2023-04-02T00:26:41.004Z,8.70
2023-04-02T00:29:13.873Z,8.60
2023-04-02T00:31:46.687Z,8.70
2023-04-02T00:34:31.495Z,8.70
2023-04-02T00:36:59.869Z,8.70
2023-04-02T00:39:30.840Z,8.70
2023-04-02T00:42:05.778Z,8.70
2023-04-02T00:44:44.141Z,8.70
2023-04-02T00:47:31.813Z,8.70
2023-04-02T00:50:19.524Z,8.70
2023-04-02T00:52:52.630Z,8.70
2023-04-02T00:55:37.725Z,8.70
2023-04-02T00:58:33.731Z,8.70
2023-04-02T01:01:01.797Z,8.70
2023-04-02T01:03:37.048Z,8.80
2023-04-02T01:06:10.807Z,8.70
2023-04-02T01:08:53.176Z,8.80
2023-04-02T01:11:59.801Z,8.80
2023-04-02T01:15:00.796Z,8.70
2023-04-02T01:17:43.709Z,8.70
2023-04-02T01:20:47.655Z,8.70
2023-04-02T01:23:45.021Z,8.70
2023-04-02T01:26:48.008Z,8.70
2023-04-02T01:29:38.436Z,8.70
2023-04-02T01:32:11.134Z,8.70
2023-04-02T01:34:39.660Z,8.70
2023-04-02T01:37:32.572Z,8.70
2023-04-02T01:40:17.783Z,8.70
2023-04-02T01:43:19.756Z,8.60
2023-04-02T01:45:47.349Z,8.50
2023-04-02T01:48:24.753Z,8.40
2023-04-02T01:50:56.936Z,8.30
2023-04-02T01:53:29.559Z,8.30
2023-04-02T01:56:01.183Z,8.20
2023-04-02T01:58:33.610Z,8.10
2023-04-02T02:01:41.425Z,8.10
2023-04-02T02:04:13.951Z,8.10
2023-04-02T02:06:42.759Z,8.00
2023-04-02T02:09:23.187Z,8.00
2023-04-02T02:11:51.842Z,7.90
2023-04-02T02:14:23.891Z,7.90
2023-04-02T02:16:56.657Z,7.80
2023-04-02T02:19:42.005Z,7.80
2023-04-02T02:22:32.737Z,7.70
2023-04-02T02:25:05.368Z,7.70
2023-04-02T02:27:55.676Z,7.60
2023-04-02T02:30:59.117Z,7.60
2023-04-02T02:33:52.831Z,7.50
2023-04-02T02:36:49.179Z,7.40
2023-04-02T02:39:42.230Z,7.40
2023-04-02T02:42:31.489Z,7.30
2023-04-02T02:45:05.321Z,7.30
2023-04-02T02:47:37.977Z,7.30
2023-04-02T02:50:23.694Z,7.30
2023-04-02T02:52:57.321Z,7.20
2023-04-02T02:55:34.571Z,7.20
2023-04-02T02:58:26.536Z,7.10
2023-04-02T03:01:03.307Z,7.10
2023-04-02T03:03:34.638Z,7.10
2023-04-02T03:06:10.615Z,7.00
2023-04-02T03:09:02.879Z,7.00
2023-04-02T03:12:20.054Z,6.90
2023-04-02T03:14:56.624Z,6.80
2023-04-02T03:17:34.646Z,6.80
2023-04-02T03:20:31.667Z,6.70
2023-04-02T03:23:22.533Z,6.70
2023-04-02T03:26:18.487Z,6.60
2023-04-02T03:29:16.786Z,6.60
2023-04-02T03:32:14.686Z,6.60
2023-04-02T03:34:53.421Z,6.50
2023-04-02T03:37:48.736Z,6.50
2023-04-02T03:40:28.117Z,6.40
2023-04-02T03:43:20.574Z,6.40
2023-04-02T03:46:05.565Z,6.30
2023-04-02T03:48:49.872Z,6.30
2023-04-02T03:51:38.818Z,6.30
2023-04-02T03:54:11.181Z,6.20
2023-04-02T03:56:41.475Z,6.20
2023-04-02T03:59:27.837Z,6.20
2023-04-02T04:02:06.673Z,6.20
2023-04-02T04:04:39.861Z,6.20
2023-04-02T04:07:34.402Z,6.20
2023-04-02T04:10:04.703Z,6.20
2023-04-02T04:12:46.378Z,6.10
2023-04-02T04:15:21.823Z,6.10
2023-04-02T04:18:35.077Z,6.10
2023-04-02T04:21:31.197Z,6.00
2023-04-02T04:24:27.777Z,6.00
2023-04-02T04:27:23.562Z,5.90
2023-04-02T04:30:24.518Z,5.90
2023-04-02T04:33:11.013Z,5.90
2023-04-02T04:35:46.587Z,5.80
2023-04-02T04:38:32.875Z,5.90
2023-04-02T04:41:22.726Z,5.80
2023-04-02T04:44:23.632Z,5.80
2023-04-02T04:47:19.073Z,5.80
2023-04-02T04:50:07.819Z,5.80
2023-04-02T04:52:42.712Z,5.80
2023-04-02T04:55:47.659Z,5.70
2023-04-02T04:58:41.127Z,5.70
2023-04-02T05:01:38.520Z,5.70
2023-04-02T05:04:22.619Z,5.70
2023-04-02T05:07:13.465Z,5.60
2023-04-02T05:10:12.343Z,5.60
2023-04-02T05:13:05.652Z,5.60
2023-04-02T05:16:22.843Z,5.60
2023-04-02T05:19:04.804Z,5.50
2023-04-02T05:21:53.800Z,5.50
2023-04-02T05:25:01.303Z,5.40
2023-04-02T05:27:52.743Z,5.40
2023-04-02T05:30:28.769Z,5.40
2023-04-02T05:33:21.722Z,5.30
2023-04-02T05:36:01.496Z,5.30
2023-04-02T05:38:36.077Z,5.30
2023-04-02T05:41:15.976Z,5.30
2023-04-02T05:43:48.744Z,5.30
2023-04-02T05:46:30.854Z,5.30
2023-04-02T05:49:00.174Z,5.30
2023-04-02T05:51:49.482Z,5.30
2023-04-02T05:54:28.438Z,5.20
2023-04-02T05:57:11.630Z,5.20
2023-04-02T05:59:46.452Z,5.20
2023-04-02T06:02:41.472Z,5.10
2023-04-02T06:05:23.876Z,5.20
2023-04-02T06:08:24.291Z,5.20
2023-04-02T06:11:24.149Z,5.20
2023-04-02T06:13:52.335Z,5.20
2023-04-02T06:16:31.091Z,5.20
2023-04-02T06:18:58.802Z,5.20
2023-04-02T06:21:27.320Z,5.20
2023-04-02T06:23:59.006Z,5.20
2023-04-02T06:26:41.505Z,5.20
2023-04-02T06:29:30.986Z,5.20
2023-04-02T06:32:04.135Z,5.20
2023-04-02T06:34:33.669Z,5.20
2023-04-02T06:37:39.490Z,5.10
2023-04-02T06:40:39.066Z,5.00
2023-04-02T06:43:46.723Z,5.00
2023-04-02T06:46:52.535Z,5.00
2023-04-02T06:49:34.353Z,5.00
2023-04-02T06:52:35.036Z,5.00
2023-04-02T06:55:20.548Z,5.00
2023-04-02T06:57:48.697Z,5.00
2023-04-02T07:00:38.122Z,5.10
2023-04-02T07:03:27.659Z,5.10
2023-04-02T07:05:57.433Z,5.00
2023-04-02T07:08:25.249Z,5.00
2023-04-02T07:10:52.591Z,5.10
2023-04-02T07:13:24.720Z,5.10
2023-04-02T07:15:55.488Z,5.10
2023-04-02T07:18:33.405Z,5.10
2023-04-02T07:21:03.633Z,5.10
2023-04-02T07:23:30.974Z,5.10
2023-04-02T07:25:58.563Z,5.10
2023-04-02T07:28:26.451Z,5.20
2023-04-02T07:30:54.106Z,5.10
2023-04-02T07:33:26.276Z,5.10
2023-04-02T07:35:56.144Z,5.10
2023-04-02T07:38:23.896Z,5.10
2023-04-02T07:40:51.003Z,5.00
2023-04-02T07:43:18.168Z,5.00
2023-04-02T07:45:45.260Z,5.00
2023-04-02T07:48:13.939Z,5.00
2023-04-02T07:50:41.887Z,5.00
2023-04-02T07:53:31.054Z,4.90
2023-04-02T07:56:02.017Z,4.90
2023-04-02T07:58:31.537Z,4.90
2023-04-02T08:01:01.632Z,4.90
2023-04-02T08:03:29.592Z,4.90
2023-04-02T08:05:59.100Z,4.80
2023-04-02T08:08:26.559Z,4.80
2023-04-02T08:10:55.497Z,4.80
2023-04-02T08:13:22.731Z,4.80
2023-04-02T08:15:49.959Z,4.80
2023-04-02T08:18:17.112Z,4.80
2023-04-02T08:20:44.176Z,4.80
2023-04-02T08:23:17.797Z,4.80
2023-04-02T08:25:48.894Z,4.80
2023-04-02T08:28:16.755Z,4.80
2023-04-02T08:30:44.600Z,4.80
2023-04-02T08:33:12.318Z,4.80
2023-04-02T08:35:39.735Z,4.90
2023-04-02T08:38:07.202Z,4.90
2023-04-02T08:40:41.766Z,4.90
2023-04-02T08:43:40.831Z,4.90
2023-04-02T08:46:47.234Z,4.90
2023-04-02T08:49:29.852Z,4.80
2023-04-02T08:51:57.282Z,4.80
2023-04-02T08:54:32.733Z,4.70
2023-04-02T08:57:19.404Z,4.80
2023-04-02T08:59:47.995Z,4.70
2023-04-02T09:02:31.739Z,4.80
2023-04-02T09:05:06.029Z,4.80
2023-04-02T09:07:33.747Z,4.80
2023-04-02T09:10:01.420Z,4.80
2023-04-02T09:12:32.075Z,4.90
2023-04-02T09:15:14.189Z,4.80
2023-04-02T09:17:53.017Z,4.90
2023-04-02T09:20:27.753Z,4.90
2023-04-02T09:22:56.831Z,4.90
2023-04-02T09:25:34.228Z,4.90
2023-04-02T09:28:05.105Z,4.90
2023-04-02T09:30:32.235Z,4.90
2023-04-02T09:33:07.257Z,4.90
2023-04-02T09:35:57.865Z,4.90
2023-04-02T09:38:33.023Z,4.90
2023-04-02T09:41:06.694Z,4.90
2023-04-02T09:43:38.025Z,4.90
2023-04-02T09:46:18.809Z,4.90
2023-04-02T09:48:54.088Z,5.00
2023-04-02T09:51:25.821Z,5.00
2023-04-02T09:54:04.797Z,5.10
2023-04-02T09:56:38.046Z,5.10
2023-04-02T09:59:14.013Z,5.00
2023-04-02T10:02:00.804Z,5.00
2023-04-02T10:04:44.483Z,5.00
2023-04-02T10:07:43.823Z,5.00
2023-04-02T10:10:47.910Z,4.90
2023-04-02T10:13:46.304Z,4.80
2023-04-02T10:16:37.813Z,4.80
2023-04-02T10:19:34.808Z,4.70
2023-04-02T10:22:17.648Z,4.70
2023-04-02T10:24:45.122Z,4.60
2023-04-02T10:27:37.752Z,4.60
2023-04-02T10:30:23.360Z,4.60
2023-04-02T10:33:00.391Z,4.60
2023-04-02T10:36:05.762Z,4.60
2023-04-02T10:38:56.018Z,4.60
2023-04-02T10:41:57.874Z,4.60
2023-04-02T10:45:04.852Z,4.60
2023-04-02T10:48:01.810Z,4.60
2023-04-02T10:50:58.362Z,4.60
2023-04-02T10:53:47.899Z,4.60
2023-04-02T10:56:15.599Z,4.60
2023-04-02T10:58:57.318Z,4.60
2023-04-02T11:01:31.250Z,4.60
2023-04-02T11:04:15.551Z,4.60
2023-04-02T11:06:51.810Z,4.60
2023-04-02T11:09:30.711Z,4.60
2023-04-02T11:12:01.804Z,4.60
2023-04-02T11:14:32.056Z,4.70
2023-04-02T11:17:03.047Z,4.70
2023-04-02T11:19:36.008Z,4.70
2023-04-02T11:22:22.249Z,4.70
2023-04-02T11:24:53.311Z,4.80
2023-04-02T11:27:36.924Z,4.80
2023-04-02T11:30:24.410Z,4.80
2023-04-02T11:32:51.820Z,4.60
2023-04-02T11:35:31.346Z,4.70
2023-04-02T11:38:23.673Z,4.60
2023-04-02T11:40:59.295Z,4.60
2023-04-02T11:43:37.064Z,4.60
2023-04-02T11:46:30.171Z,4.60
2023-04-02T11:49:33.464Z,4.60
2023-04-02T11:52:11.429Z,4.60
2023-04-02T11:54:40.859Z,4.60
2023-04-02T11:57:33.094Z,4.60
2023-04-02T12:00:47.300Z,4.60
2023-04-02T12:04:11.429Z,4.60
2023-04-02T12:06:47.689Z,4.60
2023-04-02T12:09:25.440Z,4.60
2023-04-02T12:11:56.932Z,4.60
2023-04-02T12:14:33.040Z,4.50
2023-04-02T12:17:00.707Z,4.50
2023-04-02T12:19:31.464Z,4.50
2023-04-02T12:22:00.534Z,4.40
2023-04-02T12:24:31.785Z,4.40
2023-04-02T12:27:22.659Z,4.40
2023-04-02T12:29:52.298Z,4.40
2023-04-02T12:32:30.735Z,4.30
2023-04-02T12:34:59.303Z,4.30
2023-04-02T12:37:29.646Z,4.40
2023-04-02T12:40:07.502Z,4.30
2023-04-02T12:42:37.438Z,4.30
2023-04-02T12:45:07.019Z,4.30
2023-04-02T12:47:34.266Z,4.30
2023-04-02T12:50:02.530Z,4.50
2023-04-02T12:52:30.619Z,4.30
2023-04-02T12:55:03.027Z,4.40
2023-04-02T12:57:30.222Z,4.40
2023-04-02T13:00:27.541Z,4.40
2023-04-02T13:03:21.371Z,4.40
2023-04-02T13:05:54.972Z,4.40
2023-04-02T13:08:38.928Z,4.40
2023-04-02T13:11:06.744Z,4.50
2023-04-02T13:13:40.654Z,4.50
2023-04-02T13:16:19.855Z,4.40
2023-04-02T13:18:49.354Z,4.40
2023-04-02T13:21:19.643Z,4.40
2023-04-02T13:23:47.166Z,4.40
2023-04-02T13:26:26.259Z,4.40
2023-04-02T13:29:09.981Z,4.40
2023-04-02T13:31:37.184Z,4.30
2023-04-02T13:34:04.344Z,4.30
2023-04-02T13:36:31.465Z,4.30
2023-04-02T13:38:58.607Z,4.20
2023-04-02T13:41:27.457Z,4.20
2023-04-02T13:44:03.407Z,4.20
2023-04-02T13:46:35.349Z,4.20
2023-04-02T13:49:02.667Z,4.20
2023-04-02T13:51:44.578Z,4.20
2023-04-02T13:54:46.162Z,4.30
2023-04-02T13:57:13.912Z,4.40
2023-04-02T13:59:41.036Z,4.50
2023-04-02T14:02:22.068Z,4.50
2023-04-02T14:04:59.422Z,4.50
2023-04-02T14:07:43.643Z,4.50
2023-04-02T14:10:41.534Z,4.60
2023-04-02T14:14:01.960Z,4.60
2023-04-02T14:17:05.579Z,4.70
2023-04-02T14:19:53.875Z,4.80
2023-04-02T14:22:49.706Z,4.90
2023-04-02T14:25:57.511Z,4.90
2023-04-02T14:29:23.693Z,5.00
2023-04-02T14:32:24.608Z,5.10
2023-04-02T14:35:15.017Z,5.10
2023-04-02T14:38:04.054Z,5.10
2023-04-02T14:40:51.590Z,5.10
2023-04-02T14:43:30.542Z,5.10
2023-04-02T14:45:59.468Z,5.00
2023-04-02T14:48:58.867Z,5.00
2023-04-02T14:51:54.903Z,5.00
2023-04-02T14:54:54.026Z,4.90
2023-04-02T14:57:30.567Z,4.80
2023-04-02T15:00:04.003Z,4.80
2023-04-02T15:02:50.850Z,4.70
2023-04-02T15:05:42.674Z,4.70
2023-04-02T15:08:21.765Z,4.60
2023-04-02T15:11:29.402Z,4.50
2023-04-02T15:14:37.760Z,4.50
2023-04-02T15:17:06.544Z,4.50
2023-04-02T15:19:33.645Z,4.40
2023-04-02T15:22:15.731Z,4.40
2023-04-02T15:24:45.856Z,4.40
2023-04-02T15:27:48.546Z,4.40
2023-04-02T15:30:23.676Z,4.40
2023-04-02T15:32:52.920Z,4.40
2023-04-02T15:35:36.276Z,4.30
2023-04-02T15:38:23.120Z,4.30
2023-04-02T15:41:23.025Z,4.30
2023-04-02T15:44:25.311Z,4.30
2023-04-02T15:47:26.742Z,4.20
2023-04-02T15:50:12.095Z,4.20
2023-04-02T15:53:28.305Z,4.20
2023-04-02T15:56:25.182Z,4.20
2023-04-02T15:59:09.554Z,4.20
2023-04-02T16:02:19.308Z,4.10
2023-04-02T16:05:12.736Z,4.10
2023-04-02T16:08:01.012Z,4.10
2023-04-02T16:10:42.615Z,4.10
2023-04-02T16:13:28.624Z,4.10
2023-04-02T16:16:03.506Z,4.10
2023-04-02T16:18:44.980Z,4.10
2023-04-02T16:21:20.621Z,4.10
2023-04-02T16:23:48.816Z,4.30
2023-04-02T16:26:53.624Z,4.20
2023-04-02T16:30:02.305Z,4.20
2023-04-02T16:33:04.239Z,4.10
2023-04-02T16:35:57.029Z,4.10
2023-04-02T16:39:07.511Z,4.10
2023-04-02T16:42:01.735Z,4.00
2023-04-02T16:44:58.685Z,4.00
2023-04-02T16:47:46.698Z,3.90
2023-04-02T16:50:31.979Z,3.90
2023-04-02T16:53:20.783Z,3.90
2023-04-02T16:56:12.051Z,3.90
2023-04-02T16:59:22.753Z,3.80
2023-04-02T17:02:22.100Z,3.80
2023-04-02T17:05:10.005Z,3.80
2023-04-02T17:08:30.290Z,3.80
2023-04-02T17:11:06.471Z,3.80
2023-04-02T17:13:47.342Z,3.80
2023-04-02T17:16:22.189Z,3.80
2023-04-02T17:18:55.089Z,3.80
2023-04-02T17:21:27.304Z,3.80
2023-04-02T17:24:25.944Z,3.80
2023-04-02T17:27:37.711Z,3.80
2023-04-02T17:30:17.336Z,3.80
2023-04-02T17:32:44.447Z,3.80
2023-04-02T17:35:32.182Z,3.80
2023-04-02T17:38:17.627Z,3.80
2023-04-02T17:41:50.994Z,3.80
2023-04-02T17:44:47.794Z,3.80
2023-04-02T17:47:25.846Z,3.70
2023-04-02T17:50:04.790Z,3.70
2023-04-02T17:52:56.081Z,3.70
2023-04-02T17:55:53.835Z,3.60
2023-04-02T17:58:43.709Z,3.60
2023-04-02T18:01:40.896Z,3.50
2023-04-02T18:04:56.231Z,3.50
2023-04-02T18:07:53.795Z,3.50
2023-04-02T18:11:13.376Z,3.40
2023-04-02T18:14:05.298Z,3.50
2023-04-02T18:17:10.460Z,3.50
2023-04-02T18:19:53.239Z,3.50
2023-04-02T18:22:55.740Z,3.40
2023-04-02T18:25:36.479Z,3.40
2023-04-02T18:28:16.440Z,3.40
2023-04-02T18:31:12.212Z,3.40
2023-04-02T18:34:16.268Z,3.40
2023-04-02T18:36:58.825Z,3.40
2023-04-02T18:39:46.955Z,3.40
2023-04-02T18:42:38.195Z,3.40
2023-04-02T18:45:31.755Z,3.30
2023-04-02T18:48:41.100Z,3.30
2023-04-02T18:51:23.132Z,3.30
2023-04-02T18:54:18.336Z,3.30
2023-04-02T18:56:45.651Z,3.30
2023-04-02T18:59:26.835Z,3.30
2023-04-02T19:01:56.223Z,3.30
2023-04-02T19:04:30.040Z,3.30
2023-04-02T19:07:20.110Z,3.30
2023-04-02T19:09:51.792Z,3.30
2023-04-02T19:12:23.525Z,3.30
2023-04-02T19:14:52.522Z,3.30
2023-04-02T19:17:46.957Z,3.40
2023-04-02T19:20:29.361Z,3.30
2023-04-02T19:23:17.962Z,3.30
2023-04-02T19:26:00.130Z,3.30
2023-04-02T19:28:54.407Z,3.40
2023-04-02T19:31:50.403Z,3.30
2023-04-02T19:34:41.805Z,3.30
2023-04-02T19:37:23.917Z,3.30
2023-04-02T19:40:17.812Z,3.30
2023-04-02T19:42:54.396Z,3.30
2023-04-02T19:45:44.160Z,3.30
2023-04-02T19:48:41.344Z,3.30
2023-04-02T19:51:09.301Z,3.40
2023-04-02T19:53:36.446Z,3.30
2023-04-02T19:56:03.769Z,3.30
2023-04-02T19:58:36.052Z,3.30
2023-04-02T20:01:03.985Z,3.30
2023-04-02T20:03:31.602Z,3.40
2023-04-02T20:05:59.986Z,3.20
2023-04-02T20:08:28.376Z,3.20
2023-04-02T20:10:58.633Z,3.20
2023-04-02T20:13:26.213Z,3.30
2023-04-02T20:15:53.650Z,3.30
2023-04-02T20:18:21.038Z,3.30
2023-04-02T20:20:49.411Z,3.40
2023-04-02T20:23:17.377Z,3.30
2023-04-02T20:25:46.933Z,3.30
2023-04-02T20:28:14.513Z,3.30
2023-04-02T20:30:42.093Z,3.30
2023-04-02T20:33:09.373Z,3.30
2023-04-02T20:35:37.766Z,3.30
2023-04-02T20:38:06.708Z,3.30
2023-04-02T20:40:34.617Z,3.30
2023-04-02T20:43:02.167Z,3.40
2023-04-02T20:45:29.628Z,3.40
2023-04-02T20:47:57.593Z,3.40
2023-04-02T20:50:24.883Z,3.40
2023-04-02T20:52:52.259Z,3.30
2023-04-02T20:55:19.346Z,3.30
2023-04-02T20:57:46.957Z,3.30
2023-04-02T21:00:14.713Z,3.30
2023-04-02T21:02:41.842Z,3.30
2023-04-02T21:05:09.288Z,3.30
2023-04-02T21:07:36.398Z,3.30
2023-04-02T21:10:04.048Z,3.30
2023-04-02T21:12:31.683Z,3.40
2023-04-02T21:15:01.744Z,3.20
2023-04-02T21:17:29.754Z,3.40
2023-04-02T21:19:56.867Z,3.40
2023-04-02T21:22:24.005Z,3.40
2023-04-02T21:24:51.358Z,3.50
2023-04-02T21:27:18.477Z,3.60
2023-04-02T21:29:45.539Z,3.50
2023-04-02T21:32:21.325Z,3.50
2023-04-02T21:34:49.145Z,3.50
2023-04-02T21:37:16.321Z,3.50
2023-04-02T21:39:43.402Z,3.50
2023-04-02T21:42:11.507Z,3.50
2023-04-02T21:44:38.598Z,3.50
2023-04-02T21:47:06.176Z,3.50
2023-04-02T21:49:33.389Z,3.50
2023-04-02T21:52:00.501Z,3.50
2023-04-02T21:54:27.620Z,3.70
2023-04-02T21:56:54.758Z,3.60
2023-04-02T21:59:22.099Z,3.70
2023-04-02T22:01:52.092Z,3.60
2023-04-02T22:04:23.346Z,3.60
2023-04-02T22:06:52.573Z,3.60
2023-04-02T22:09:26.228Z,3.60
2023-04-02T22:11:59.206Z,3.60
2023-04-02T22:14:27.641Z,3.60
2023-04-02T22:16:55.252Z,3.60
2023-04-02T22:19:22.555Z,3.60
2023-04-02T22:21:50.002Z,3.60
2023-04-02T22:24:18.978Z,3.60
2023-04-02T22:26:46.845Z,3.60
2023-04-02T22:29:14.816Z,3.60
2023-04-02T22:31:41.957Z,3.60
2023-04-02T22:34:09.743Z,3.50
2023-04-02T22:36:37.465Z,3.50
2023-04-02T22:39:07.093Z,3.50
2023-04-02T22:41:34.209Z,3.60
2023-04-02T22:44:02.077Z,3.60
2023-04-02T22:46:31.070Z,3.50
2023-04-02T22:48:58.570Z,3.50
2023-04-02T22:51:27.964Z,3.50
2023-04-02T22:53:56.560Z,3.50
2023-04-02T22:56:29.698Z,3.50
2023-04-02T22:58:56.829Z,3.50
2023-04-02T23:01:29.633Z,3.50
2023-04-02T23:03:57.099Z,3.50
2023-04-02T23:06:25.429Z,3.50
2023-04-02T23:08:53.042Z,3.70
2023-04-02T23:11:23.973Z,3.50
2023-04-02T23:13:54.691Z,3.50
2023-04-02T23:16:23.001Z,3.50
2023-04-02T23:18:50.895Z,3.50
2023-04-02T23:21:20.187Z,3.40
2023-04-02T23:23:49.096Z,3.40
2023-04-02T23:26:22.384Z,3.40
2023-04-02T23:28:50.211Z,3.40
2023-04-02T23:31:22.871Z,3.30
2023-04-02T23:33:52.008Z,3.30
2023-04-02T23:36:25.490Z,3.30
2023-04-02T23:38:55.789Z,3.30
2023-04-02T23:41:27.174Z,3.40
2023-04-02T23:43:56.182Z,3.20
2023-04-02T23:46:24.595Z,3.30
2023-04-02T23:48:52.954Z,3.20
2023-04-02T23:51:20.725Z,3.20
2023-04-02T23:53:49.614Z,3.20
2023-04-02T23:56:17.933Z,3.20
2023-04-02T23:58:46.040Z,3.10
